sensor_id;sensor_type;location;lat;lon;timestamp;pressure;altitude;pressure_sealevel;temperature;humidity
44359;BME280;30077;52.474;13.326;2023-02-01T00:01:27;100437.13;;;3.02;100.00
44359;BME280;30077;52.474;13.326;2023-02-01T00:06:27;100438.00;;;3.02;100.00
44359;BME280;30077;52.474;13.326;2023-02-01T00:11:28;100431.63;;;3.14;100.00
44359;BME280;30077;52.474;13.326;2023-02-01T00:16:29;100433.19;;;3.23;100.00
44359;BME280;30077;52.474;13.326;2023-02-01T00:21:32;100437.75;;;3.16;100.00
44359;BME280;30077;52.474;13.326;2023-02-01T00:26:34;100436.13;;;3.07;100.00
44359;BME280;30077;52.474;13.326;2023-02-01T00:31:34;100430.75;;;3.12;100.00
44359;BME280;30077;52.474;13.326;2023-02-01T00:36:34;100433.47;;;3.09;100.00
44359;BME280;30077;52.474;13.326;2023-02-01T00:41:35;100440.63;;;3.01;100.00
44359;BME280;30077;52.474;13.326;2023-02-01T00:46:35;100447.72;;;2.99;100.00
44359;BME280;30077;52.474;13.326;2023-02-01T00:51:37;100452.28;;;2.87;100.00
44359;BME280;30077;52.474;13.326;2023-02-01T00:56:37;100462.06;;;2.79;100.00
44359;BME280;30077;52.474;13.326;2023-02-01T01:01:37;100455.13;;;2.77;100.00
44359;BME280;30077;52.474;13.326;2023-02-01T01:06:38;100469.19;;;2.74;100.00
44359;BME280;30077;52.474;13.326;2023-02-01T01:11:38;100456.94;;;2.72;100.00
44359;BME280;30077;52.474;13.326;2023-02-01T01:16:38;100449.97;;;2.69;100.00
44359;BME280;30077;52.474;13.326;2023-02-01T01:21:38;100439.44;;;2.69;100.00
44359;BME280;30077;52.474;13.326;2023-02-01T01:26:40;100449.84;;;2.75;100.00
44359;BME280;30077;52.474;13.326;2023-02-01T01:31:40;100420.81;;;2.78;100.00
44359;BME280;30077;52.474;13.326;2023-02-01T01:36:40;100415.56;;;2.78;100.00
44359;BME280;30077;52.474;13.326;2023-02-01T01:41:41;100416.38;;;2.83;100.00
44359;BME280;30077;52.474;13.326;2023-02-01T01:46:43;100403.97;;;2.88;100.00
44359;BME280;30077;52.474;13.326;2023-02-01T01:52:01;100396.84;;;2.94;100.00
44359;BME280;30077;52.474;13.326;2023-02-01T01:57:04;100408.97;;;3.04;100.00
44359;BME280;30077;52.474;13.326;2023-02-01T02:02:06;100409.75;;;3.09;100.00
44359;BME280;30077;52.474;13.326;2023-02-01T02:07:08;100422.81;;;3.15;100.00
44359;BME280;30077;52.474;13.326;2023-02-01T02:12:09;100414.06;;;3.13;100.00
44359;BME280;30077;52.474;13.326;2023-02-01T02:17:19;100419.19;;;3.19;100.00
44359;BME280;30077;52.474;13.326;2023-02-01T02:27:46;100412.75;;;3.35;100.00
44359;BME280;30077;52.474;13.326;2023-02-01T02:38:02;100423.22;;;3.40;100.00
44359;BME280;30077;52.474;13.326;2023-02-01T02:43:09;100407.22;;;3.48;100.00
44359;BME280;30077;52.474;13.326;2023-02-01T02:48:52;100405.41;;;3.51;100.00
44359;BME280;30077;52.474;13.326;2023-02-01T02:53:56;100400.88;;;3.58;100.00
44359;BME280;30077;52.474;13.326;2023-02-01T02:59:17;100394.66;;;3.60;100.00
44359;BME280;30077;52.474;13.326;2023-02-01T03:04:37;100397.31;;;3.59;100.00
44359;BME280;30077;52.474;13.326;2023-02-01T03:09:39;100392.69;;;3.70;100.00
44359;BME280;30077;52.474;13.326;2023-02-01T03:14:40;100391.81;;;3.71;100.00
44359;BME280;30077;52.474;13.326;2023-02-01T03:19:45;100380.38;;;3.71;100.00
44359;BME280;30077;52.474;13.326;2023-02-01T03:24:56;100366.41;;;3.67;100.00
44359;BME280;30077;52.474;13.326;2023-02-01T03:30:04;100349.03;;;3.57;100.00
44359;BME280;30077;52.474;13.326;2023-02-01T03:35:05;100354.31;;;3.57;100.00
44359;BME280;30077;52.474;13.326;2023-02-01T03:40:07;100344.38;;;3.68;100.00
44359;BME280;30077;52.474;13.326;2023-02-01T03:45:13;100345.41;;;3.61;100.00
44359;BME280;30077;52.474;13.326;2023-02-01T03:50:17;100347.94;;;3.67;100.00
44359;BME280;30077;52.474;13.326;2023-02-01T03:55:19;100344.16;;;3.77;100.00
44359;BME280;30077;52.474;13.326;2023-02-01T04:00:21;100338.81;;;3.80;100.00
44359;BME280;30077;52.474;13.326;2023-02-01T04:05:22;100347.41;;;3.90;100.00
44359;BME280;30077;52.474;13.326;2023-02-01T04:10:22;100334.88;;;4.00;100.00
44359;BME280;30077;52.474;13.326;2023-02-01T04:15:22;100326.78;;;4.07;100.00
44359;BME280;30077;52.474;13.326;2023-02-01T04:20:23;100341.59;;;4.13;100.00
44359;BME280;30077;52.474;13.326;2023-02-01T04:25:23;100345.06;;;4.15;100.00
44359;BME280;30077;52.474;13.326;2023-02-01T04:30:23;100329.16;;;4.18;100.00
44359;BME280;30077;52.474;13.326;2023-02-01T04:35:23;100335.94;;;4.28;100.00
44359;BME280;30077;52.474;13.326;2023-02-01T04:40:24;100328.00;;;4.28;100.00
44359;BME280;30077;52.474;13.326;2023-02-01T04:45:24;100321.84;;;4.28;100.00
44359;BME280;30077;52.474;13.326;2023-02-01T04:50:24;100319.00;;;4.37;100.00
44359;BME280;30077;52.474;13.326;2023-02-01T04:55:24;100322.44;;;4.39;100.00
44359;BME280;30077;52.474;13.326;2023-02-01T05:00:24;100319.78;;;4.41;100.00
44359;BME280;30077;52.474;13.326;2023-02-01T05:05:25;100311.88;;;4.41;100.00
44359;BME280;30077;52.474;13.326;2023-02-01T05:10:25;100289.03;;;4.38;100.00
44359;BME280;30077;52.474;13.326;2023-02-01T05:15:25;100286.53;;;4.33;100.00
44359;BME280;30077;52.474;13.326;2023-02-01T05:20:28;100287.25;;;4.39;100.00
44359;BME280;30077;52.474;13.326;2023-02-01T05:25:28;100281.16;;;4.37;100.00
44359;BME280;30077;52.474;13.326;2023-02-01T05:30:28;100276.41;;;4.49;100.00
44359;BME280;30077;52.474;13.326;2023-02-01T05:35:28;100280.84;;;4.49;100.00
44359;BME280;30077;52.474;13.326;2023-02-01T05:40:29;100279.63;;;4.61;100.00
44359;BME280;30077;52.474;13.326;2023-02-01T05:45:29;100279.63;;;4.61;100.00
44359;BME280;30077;52.474;13.326;2023-02-01T05:50:29;100269.19;;;4.56;100.00
44359;BME280;30077;52.474;13.326;2023-02-01T05:55:30;100270.91;;;4.57;100.00
44359;BME280;30077;52.474;13.326;2023-02-01T06:00:30;100263.91;;;4.56;100.00
44359;BME280;30077;52.474;13.326;2023-02-01T06:05:31;100251.63;;;4.55;100.00
44359;BME280;30077;52.474;13.326;2023-02-01T06:10:31;100258.50;;;4.61;100.00
44359;BME280;30077;52.474;13.326;2023-02-01T06:15:33;100257.91;;;4.51;100.00
44359;BME280;30077;52.474;13.326;2023-02-01T06:20:33;100256.47;;;4.38;100.00
44359;BME280;30077;52.474;13.326;2023-02-01T06:25:33;100253.09;;;4.32;100.00
44359;BME280;30077;52.474;13.326;2023-02-01T06:30:33;100246.94;;;4.32;100.00
44359;BME280;30077;52.474;13.326;2023-02-01T06:35:34;100247.03;;;4.29;100.00
44359;BME280;30077;52.474;13.326;2023-02-01T06:40:34;100245.47;;;4.20;100.00
44359;BME280;30077;52.474;13.326;2023-02-01T06:45:35;100248.13;;;4.20;100.00
44359;BME280;30077;52.474;13.326;2023-02-01T06:50:35;100232.28;;;4.20;100.00
44359;BME280;30077;52.474;13.326;2023-02-01T06:55:35;100225.34;;;4.16;100.00
44359;BME280;30077;52.474;13.326;2023-02-01T07:00:36;100214.44;;;4.28;100.00
44359;BME280;30077;52.474;13.326;2023-02-01T07:05:37;100216.91;;;4.36;100.00
44359;BME280;30077;52.474;13.326;2023-02-01T07:10:37;100218.50;;;4.42;100.00
44359;BME280;30077;52.474;13.326;2023-02-01T07:15:37;100222.88;;;4.43;100.00
44359;BME280;30077;52.474;13.326;2023-02-01T07:20:37;100211.44;;;4.42;100.00
44359;BME280;30077;52.474;13.326;2023-02-01T07:25:38;100209.97;;;4.32;100.00
44359;BME280;30077;52.474;13.326;2023-02-01T07:30:38;100185.31;;;4.31;100.00
44359;BME280;30077;52.474;13.326;2023-02-01T07:35:38;100183.25;;;4.44;100.00
44359;BME280;30077;52.474;13.326;2023-02-01T07:40:38;100185.66;;;4.52;100.00
44359;BME280;30077;52.474;13.326;2023-02-01T07:45:38;100182.47;;;4.41;100.00
44359;BME280;30077;52.474;13.326;2023-02-01T07:50:39;100201.63;;;4.15;100.00
44359;BME280;30077;52.474;13.326;2023-02-01T07:55:39;100185.50;;;3.93;100.00
44359;BME280;30077;52.474;13.326;2023-02-01T08:00:39;100182.25;;;3.81;100.00
44359;BME280;30077;52.474;13.326;2023-02-01T08:05:58;100172.94;;;3.67;100.00
44359;BME280;30077;52.474;13.326;2023-02-01T08:10:58;100161.63;;;3.61;100.00
44359;BME280;30077;52.474;13.326;2023-02-01T08:15:59;100178.63;;;3.50;100.00
44359;BME280;30077;52.474;13.326;2023-02-01T08:21:03;100170.78;;;3.47;100.00
44359;BME280;30077;52.474;13.326;2023-02-01T08:26:14;100168.09;;;3.48;100.00
44359;BME280;30077;52.474;13.326;2023-02-01T08:31:15;100166.63;;;3.38;100.00
44359;BME280;30077;52.474;13.326;2023-02-01T08:36:16;100167.47;;;3.38;100.00
44359;BME280;30077;52.474;13.326;2023-02-01T08:41:17;100179.69;;;3.43;100.00
44359;BME280;30077;52.474;13.326;2023-02-01T08:46:18;100180.44;;;3.48;100.00
44359;BME280;30077;52.474;13.326;2023-02-01T08:51:19;100183.06;;;3.48;100.00
44359;BME280;30077;52.474;13.326;2023-02-01T08:56:20;100194.59;;;3.44;100.00
44359;BME280;30077;52.474;13.326;2023-02-01T09:01:20;100202.63;;;3.37;100.00
44359;BME280;30077;52.474;13.326;2023-02-01T09:06:20;100211.53;;;3.33;100.00
44359;BME280;30077;52.474;13.326;2023-02-01T09:11:20;100210.66;;;3.34;100.00
44359;BME280;30077;52.474;13.326;2023-02-01T09:16:20;100206.97;;;3.40;100.00
44359;BME280;30077;52.474;13.326;2023-02-01T09:21:21;100224.41;;;3.47;100.00
44359;BME280;30077;52.474;13.326;2023-02-01T09:26:21;100238.38;;;3.51;100.00
44359;BME280;30077;52.474;13.326;2023-02-01T09:31:21;100243.47;;;3.60;100.00
44359;BME280;30077;52.474;13.326;2023-02-01T09:36:21;100238.78;;;3.71;100.00
44359;BME280;30077;52.474;13.326;2023-02-01T09:46:32;100268.50;;;3.79;100.00
44359;BME280;30077;52.474;13.326;2023-02-01T09:51:35;100264.81;;;3.86;100.00
44359;BME280;30077;52.474;13.326;2023-02-01T09:56:41;100276.75;;;4.01;100.00
44359;BME280;30077;52.474;13.326;2023-02-01T10:01:42;100276.03;;;3.95;100.00
44359;BME280;30077;52.474;13.326;2023-02-01T10:06:46;100270.00;;;3.90;100.00
44359;BME280;30077;52.474;13.326;2023-02-01T10:12:07;100270.16;;;3.83;100.00
44359;BME280;30077;52.474;13.326;2023-02-01T10:17:23;100271.00;;;3.84;100.00
44359;BME280;30077;52.474;13.326;2023-02-01T10:27:35;100278.28;;;4.10;100.00
44359;BME280;30077;52.474;13.326;2023-02-01T10:32:36;100269.31;;;4.17;100.00
44359;BME280;30077;52.474;13.326;2023-02-01T10:37:36;100274.81;;;4.44;100.00
44359;BME280;30077;52.474;13.326;2023-02-01T10:42:37;100269.31;;;4.17;100.00
44359;BME280;30077;52.474;13.326;2023-02-01T10:47:37;100291.25;;;3.85;100.00
44359;BME280;30077;52.474;13.326;2023-02-01T10:52:44;100272.03;;;3.78;100.00
44359;BME280;30077;52.474;13.326;2023-02-01T10:57:54;100274.69;;;3.78;100.00
44359;BME280;30077;52.474;13.326;2023-02-01T11:02:55;100282.53;;;3.81;100.00
44359;BME280;30077;52.474;13.326;2023-02-01T11:07:56;100270.75;;;3.96;100.00
44359;BME280;30077;52.474;13.326;2023-02-01T11:12:56;100270.00;;;4.25;100.00
44359;BME280;30077;52.474;13.326;2023-02-01T11:17:57;100264.28;;;4.42;100.00
44359;BME280;30077;52.474;13.326;2023-02-01T11:23:18;100255.56;;;4.71;100.00
44359;BME280;30077;52.474;13.326;2023-02-01T11:28:20;100260.25;;;4.93;100.00
44359;BME280;30077;52.474;13.326;2023-02-01T11:33:27;100250.06;;;5.10;100.00
44359;BME280;30077;52.474;13.326;2023-02-01T11:38:30;100232.16;;;5.48;100.00
44359;BME280;30077;52.474;13.326;2023-02-01T11:43:31;149371.56;;;5.43;100.00
44359;BME280;30077;52.474;13.326;2023-02-01T11:48:31;60132.88;;;-143.30;100.00
44359;BME280;30077;52.474;13.326;2023-02-01T11:58:55;60132.88;;;-143.30;100.00
44359;BME280;30077;52.474;13.326;2023-02-01T12:04:05;60132.88;;;-143.30;100.00
44359;BME280;30077;52.474;13.326;2023-02-01T12:09:15;60132.88;;;-143.30;100.00
44359;BME280;30077;52.474;13.326;2023-02-01T12:14:28;60132.88;;;-143.30;100.00
44359;BME280;30077;52.474;13.326;2023-02-01T12:19:56;60132.88;;;-143.30;100.00
44359;BME280;30077;52.474;13.326;2023-02-01T12:35:37;60132.88;;;-143.30;100.00
44359;BME280;30077;52.474;13.326;2023-02-01T12:46:05;60132.88;;;-143.30;100.00
44359;BME280;30077;52.474;13.326;2023-02-01T12:51:09;60132.88;;;-143.30;100.00
44359;BME280;30077;52.474;13.326;2023-02-01T12:56:14;60132.88;;;-143.30;100.00
44359;BME280;30077;52.474;13.326;2023-02-01T13:01:25;60132.88;;;-143.30;100.00
44359;BME280;30077;52.474;13.326;2023-02-01T13:06:42;60132.88;;;-143.30;100.00
44359;BME280;30077;52.474;13.326;2023-02-01T13:11:44;60132.88;;;-143.30;100.00
44359;BME280;30077;52.474;13.326;2023-02-01T13:16:47;60132.88;;;-143.30;100.00
44359;BME280;30077;52.474;13.326;2023-02-01T13:21:53;60132.88;;;-143.30;100.00
44359;BME280;30077;52.474;13.326;2023-02-01T13:27:22;60132.88;;;-143.30;100.00
44359;BME280;30077;52.474;13.326;2023-02-01T13:32:30;60132.88;;;-143.30;100.00
44359;BME280;30077;52.474;13.326;2023-02-01T13:42:58;60132.88;;;-143.30;100.00
44359;BME280;30077;52.474;13.326;2023-02-01T13:48:01;60132.88;;;-143.30;100.00
44359;BME280;30077;52.474;13.326;2023-02-01T13:53:26;60132.88;;;-143.30;100.00
44359;BME280;30077;52.474;13.326;2023-02-01T13:58:36;60132.88;;;-143.30;100.00
44359;BME280;30077;52.474;13.326;2023-02-01T14:03:45;60132.88;;;-143.30;100.00
44359;BME280;30077;52.474;13.326;2023-02-01T14:08:46;60132.88;;;-143.30;100.00
44359;BME280;30077;52.474;13.326;2023-02-01T14:19:21;60132.88;;;-143.30;100.00
44359;BME280;30077;52.474;13.326;2023-02-01T14:24:24;60132.88;;;-143.30;100.00
44359;BME280;30077;52.474;13.326;2023-02-01T14:29:26;60132.88;;;-143.30;100.00
44359;BME280;30077;52.474;13.326;2023-02-01T14:39:32;60132.88;;;-143.30;100.00
44359;BME280;30077;52.474;13.326;2023-02-01T14:44:36;60132.88;;;-143.30;100.00
44359;BME280;30077;52.474;13.326;2023-02-01T14:49:48;60132.88;;;-143.30;100.00
44359;BME280;30077;52.474;13.326;2023-02-01T14:54:53;60132.88;;;-143.30;100.00
44359;BME280;30077;52.474;13.326;2023-02-01T14:59:59;60132.88;;;-143.30;100.00
44359;BME280;30077;52.474;13.326;2023-02-01T15:05:00;60132.88;;;-143.30;100.00
44359;BME280;30077;52.474;13.326;2023-02-01T15:10:00;60132.88;;;-143.30;100.00
44359;BME280;30077;52.474;13.326;2023-02-01T15:15:09;60132.88;;;-143.30;100.00
44359;BME280;30077;52.474;13.326;2023-02-01T15:21:19;60132.88;;;-143.30;100.00
44359;BME280;30077;52.474;13.326;2023-02-01T15:26:32;100139.16;;;6.13;99.91
44359;BME280;30077;52.474;13.326;2023-02-01T15:32:35;60132.88;;;-143.30;100.00
44359;BME280;30077;52.474;13.326;2023-02-01T15:44:38;60132.88;;;-143.30;100.00
44359;BME280;30077;52.474;13.326;2023-02-01T15:50:41;60132.88;;;-143.30;100.00
44359;BME280;30077;52.474;13.326;2023-02-01T15:55:55;60132.88;;;-143.30;100.00
44359;BME280;30077;52.474;13.326;2023-02-01T16:01:56;60132.88;;;-143.30;100.00
44359;BME280;30077;52.474;13.326;2023-02-01T16:07:57;60132.88;;;-143.30;100.00
44359;BME280;30077;52.474;13.326;2023-02-01T16:13:03;100097.28;;;2.13;100.00
44359;BME280;30077;52.474;13.326;2023-02-01T16:18:04;100092.69;;;1.80;100.00
44359;BME280;30077;52.474;13.326;2023-02-01T16:24:03;60132.88;;;-143.30;100.00
44359;BME280;30077;52.474;13.326;2023-02-01T16:30:02;60132.88;;;-143.30;100.00
44359;BME280;30077;52.474;13.326;2023-02-01T16:36:01;60132.88;;;-143.30;100.00
44359;BME280;30077;52.474;13.326;2023-02-01T16:41:03;100083.34;;;2.10;100.00
44359;BME280;30077;52.474;13.326;2023-02-01T16:46:05;100093.03;;;2.08;100.00
44359;BME280;30077;52.474;13.326;2023-02-01T16:51:09;100089.38;;;2.15;100.00
44359;BME280;30077;52.474;13.326;2023-02-01T16:56:21;100106.97;;;2.13;100.00
44359;BME280;30077;52.474;13.326;2023-02-01T17:01:22;100117.38;;;2.19;100.00
44359;BME280;30077;52.474;13.326;2023-02-01T17:06:23;100120.78;;;2.24;100.00
44359;BME280;30077;52.474;13.326;2023-02-01T17:11:24;100115.44;;;2.29;100.00
44359;BME280;30077;52.474;13.326;2023-02-01T17:16:29;100111.75;;;2.37;100.00
44359;BME280;30077;52.474;13.326;2023-02-01T17:21:39;100098.34;;;2.48;100.00
44359;BME280;30077;52.474;13.326;2023-02-01T17:26:40;100106.13;;;2.54;100.00
44359;BME280;30077;52.474;13.326;2023-02-01T17:31:42;100102.59;;;2.54;100.00
44359;BME280;30077;52.474;13.326;2023-02-01T17:36:42;100103.41;;;2.59;100.00
44359;BME280;30077;52.474;13.326;2023-02-01T17:41:43;100116.34;;;2.68;100.00
44359;BME280;30077;52.474;13.326;2023-02-01T17:46:43;100117.09;;;2.75;100.00
44359;BME280;30077;52.474;13.326;2023-02-01T17:51:44;100124.75;;;2.85;100.00
44359;BME280;30077;52.474;13.326;2023-02-01T17:56:44;100120.41;;;2.83;100.00
44359;BME280;30077;52.474;13.326;2023-02-01T18:01:44;100134.63;;;2.76;100.00
44359;BME280;30077;52.474;13.326;2023-02-01T18:06:45;100138.09;;;2.78;100.00
44359;BME280;30077;52.474;13.326;2023-02-01T18:11:45;100137.00;;;2.88;100.00
44359;BME280;30077;52.474;13.326;2023-02-01T18:16:47;100141.31;;;2.92;100.00
44359;BME280;30077;52.474;13.326;2023-02-01T18:21:47;100147.25;;;3.02;100.00
44359;BME280;30077;52.474;13.326;2023-02-01T18:26:50;100144.72;;;2.96;100.00
44359;BME280;30077;52.474;13.326;2023-02-01T18:31:51;100146.28;;;3.04;100.00
44359;BME280;30077;52.474;13.326;2023-02-01T18:36:51;100148.75;;;3.12;100.00
44359;BME280;30077;52.474;13.326;2023-02-01T18:41:52;100149.69;;;3.09;100.00
44359;BME280;30077;52.474;13.326;2023-02-01T18:46:52;100157.66;;;3.06;100.00
44359;BME280;30077;52.474;13.326;2023-02-01T18:51:53;100152.16;;;3.17;100.00
44359;BME280;30077;52.474;13.326;2023-02-01T18:56:53;100164.44;;;3.18;100.00
44359;BME280;30077;52.474;13.326;2023-02-01T19:01:53;100162.56;;;3.23;100.00
44359;BME280;30077;52.474;13.326;2023-02-01T19:06:54;100167.91;;;3.20;100.00
44359;BME280;30077;52.474;13.326;2023-02-01T19:11:54;100170.28;;;3.31;100.00
44359;BME280;30077;52.474;13.326;2023-02-01T19:16:54;100180.84;;;3.31;100.00
44359;BME280;30077;52.474;13.326;2023-02-01T19:21:57;100180.97;;;3.25;100.00
44359;BME280;30077;52.474;13.326;2023-02-01T19:26:57;100173.19;;;3.20;100.00
44359;BME280;30077;52.474;13.326;2023-02-01T19:31:57;100173.81;;;3.30;100.00
44359;BME280;30077;52.474;13.326;2023-02-01T19:36:57;100189.50;;;3.36;100.00
44359;BME280;30077;52.474;13.326;2023-02-01T19:41:57;100188.56;;;3.38;100.00
44359;BME280;30077;52.474;13.326;2023-02-01T19:46:59;100204.38;;;3.38;100.00
44359;BME280;30077;52.474;13.326;2023-02-01T19:52:00;100200.78;;;3.43;100.00
44359;BME280;30077;52.474;13.326;2023-02-01T19:57:00;100193.69;;;3.45;100.00
44359;BME280;30077;52.474;13.326;2023-02-01T20:02:00;100206.13;;;3.40;100.00
44359;BME280;30077;52.474;13.326;2023-02-01T20:07:01;100191.38;;;3.31;100.00
44359;BME280;30077;52.474;13.326;2023-02-01T20:12:01;100191.59;;;3.22;100.00
44359;BME280;30077;52.474;13.326;2023-02-01T20:17:03;100195.03;;;3.25;100.00
44359;BME280;30077;52.474;13.326;2023-02-01T20:22:04;100189.84;;;3.21;100.00
44359;BME280;30077;52.474;13.326;2023-02-01T20:27:04;100194.53;;;3.08;100.00
44359;BME280;30077;52.474;13.326;2023-02-01T20:32:05;100191.88;;;3.08;100.00
44359;BME280;30077;52.474;13.326;2023-02-01T20:37:05;100196.22;;;3.10;100.00
44359;BME280;30077;52.474;13.326;2023-02-01T20:42:05;100202.25;;;3.17;100.00
44359;BME280;30077;52.474;13.326;2023-02-01T20:47:05;100195.31;;;3.13;100.00
44359;BME280;30077;52.474;13.326;2023-02-01T20:52:06;100174.97;;;3.18;100.00
44359;BME280;30077;52.474;13.326;2023-02-01T20:57:06;100169.81;;;3.13;100.00
44359;BME280;30077;52.474;13.326;2023-02-01T21:02:07;100187.53;;;3.07;100.00
44359;BME280;30077;52.474;13.326;2023-02-01T21:07:08;100199.09;;;3.00;100.00
44359;BME280;30077;52.474;13.326;2023-02-01T21:12:08;100196.59;;;2.94;100.00
44359;BME280;30077;52.474;13.326;2023-02-01T21:17:09;100191.31;;;2.94;100.00
44359;BME280;30077;52.474;13.326;2023-02-01T21:22:10;100194.06;;;2.89;100.00
44359;BME280;30077;52.474;13.326;2023-02-01T21:27:11;100198.59;;;2.82;100.00
44359;BME280;30077;52.474;13.326;2023-02-01T21:32:11;100195.19;;;2.77;100.00
44359;BME280;30077;52.474;13.326;2023-02-01T21:37:12;100191.88;;;2.68;100.00
44359;BME280;30077;52.474;13.326;2023-02-01T21:42:12;100191.69;;;2.75;100.00
44359;BME280;30077;52.474;13.326;2023-02-01T21:47:13;100204.94;;;2.72;100.00
44359;BME280;30077;52.474;13.326;2023-02-01T21:52:15;100202.28;;;2.72;100.00
44359;BME280;30077;52.474;13.326;2023-02-01T21:57:18;100213.56;;;2.80;100.00
44359;BME280;30077;52.474;13.326;2023-02-01T22:02:18;100210.13;;;2.75;100.00
44359;BME280;30077;52.474;13.326;2023-02-01T22:07:18;100211.75;;;2.84;100.00
44359;BME280;30077;52.474;13.326;2023-02-01T22:12:18;100212.59;;;2.84;100.00
44359;BME280;30077;52.474;13.326;2023-02-01T22:17:18;100216.75;;;2.96;100.00
44359;BME280;30077;52.474;13.326;2023-02-01T22:22:19;100215.81;;;2.99;100.00
44359;BME280;30077;52.474;13.326;2023-02-01T22:27:19;100208.88;;;2.95;100.00
44359;BME280;30077;52.474;13.326;2023-02-01T22:32:19;100221.94;;;2.99;100.00
44359;BME280;30077;52.474;13.326;2023-02-01T22:37:19;100221.78;;;3.07;100.00
44359;BME280;30077;52.474;13.326;2023-02-01T22:42:19;100218.25;;;3.08;100.00
44359;BME280;30077;52.474;13.326;2023-02-01T22:47:19;100209.41;;;3.10;100.00
44359;BME280;30077;52.474;13.326;2023-02-01T22:52:20;100218.34;;;3.03;100.00
44359;BME280;30077;52.474;13.326;2023-02-01T22:57:20;100205.53;;;3.27;100.00
44359;BME280;30077;52.474;13.326;2023-02-01T23:02:21;100211.38;;;3.40;100.00
44359;BME280;30077;52.474;13.326;2023-02-01T23:07:22;100202.63;;;3.37;100.00
44359;BME280;30077;52.474;13.326;2023-02-01T23:12:22;100200.97;;;3.33;100.00
44359;BME280;30077;52.474;13.326;2023-02-01T23:17:22;100202.94;;;3.25;100.00
44359;BME280;30077;52.474;13.326;2023-02-01T23:22:23;100183.44;;;3.32;100.00
44359;BME280;30077;52.474;13.326;2023-02-01T23:27:23;100188.84;;;3.26;100.00
44359;BME280;30077;52.474;13.326;2023-02-01T23:32:25;100190.59;;;3.27;100.00
44359;BME280;30077;52.474;13.326;2023-02-01T23:37:26;100185.13;;;3.35;100.00
44359;BME280;30077;52.474;13.326;2023-02-01T23:42:26;100172.75;;;3.38;100.00
44359;BME280;30077;52.474;13.326;2023-02-01T23:47:26;100163.88;;;3.43;100.00
44359;BME280;30077;52.474;13.326;2023-02-01T23:52:27;100153.00;;;3.55;100.00
44359;BME280;30077;52.474;13.326;2023-02-01T23:57:27;100145.94;;;3.57;100.00
